createdAt,value
2019-03-30T00:02:15.847Z,5.46
2019-03-30T00:08:10.560Z,5.48
2019-03-30T00:14:05.520Z,4.83
2019-03-30T00:20:00.523Z,4.9
2019-03-30T00:25:55.543Z,4.61
2019-03-30T00:37:45.528Z,4.38
2019-03-30T00:37:45.582Z,4.48
2019-03-30T00:43:40.574Z,4.72
2019-03-30T00:49:48.327Z,4.6
2019-03-30T00:55:30.530Z,4.43
2019-03-30T01:01:25.559Z,4.94
2019-03-30T01:07:20.855Z,5.06
2019-03-30T01:13:15.864Z,4.94
2019-03-30T01:19:10.550Z,5.05
2019-03-30T01:31:00.566Z,4.92
2019-03-30T01:31:00.639Z,5.06
2019-03-30T01:36:55.564Z,5.25
2019-03-30T01:42:50.559Z,4.91
2019-03-30T01:48:45.568Z,4.41
2019-03-30T01:54:40.590Z,3.74
2019-03-30T02:00:35.584Z,4.03
2019-03-30T02:06:30.620Z,3.18
2019-03-30T02:12:25.601Z,3.65
2019-03-30T02:18:20.606Z,3.33
2019-03-30T02:24:15.903Z,3.33
2019-03-30T02:30:10.637Z,3.75
2019-03-30T02:36:05.646Z,3.75
2019-03-30T02:42:00.653Z,3.81
2019-03-30T02:47:55.622Z,3.45
2019-03-30T02:53:50.619Z,3.44
2019-03-30T02:59:45.639Z,3.39
2019-03-30T03:05:40.642Z,3.62
2019-03-30T03:11:35.637Z,3.76
2019-03-30T03:17:30.607Z,4.28
2019-03-30T03:23:25.640Z,3.93
2019-03-30T03:29:20.925Z,4.13
2019-03-30T03:35:15.947Z,4.2
2019-03-30T03:41:10.681Z,4.32
2019-03-30T03:47:05.642Z,3.76
2019-03-30T03:53:00.652Z,4.49
2019-03-30T03:58:55.645Z,4.12
2019-03-30T04:04:50.671Z,4
2019-03-30T04:10:45.705Z,4.71
2019-03-30T04:16:40.657Z,4.67
2019-03-30T04:22:35.659Z,4.66
2019-03-30T04:28:30.815Z,4.28
2019-03-30T04:34:25.692Z,4.16
2019-03-30T04:40:20.733Z,3.93
2019-03-30T04:46:16.011Z,3.9
2019-03-30T04:52:10.696Z,5.15
2019-03-30T04:58:08.971Z,4.34
2019-03-30T05:04:00.742Z,4.94
2019-03-30T05:09:55.709Z,4.12
2019-03-30T05:15:50.749Z,3.94
2019-03-30T05:21:45.724Z,4.32
2019-03-30T05:27:40.716Z,4.23
2019-03-30T05:33:35.705Z,4.61
2019-03-30T05:39:30.706Z,4.87
2019-03-30T05:45:26.046Z,4.41
2019-03-30T05:51:20.712Z,4.78
2019-03-30T05:57:16.048Z,4.76
2019-03-30T06:03:10.716Z,5.18
2019-03-30T06:09:05.741Z,5.54
2019-03-30T06:15:00.780Z,6.03
2019-03-30T06:20:55.738Z,7.54
2019-03-30T06:26:50.761Z,8.87
2019-03-30T06:32:45.769Z,10.65
2019-03-30T06:38:40.771Z,9.98
2019-03-30T06:44:35.778Z,8.85
2019-03-30T06:50:30.809Z,6.33
2019-03-30T06:56:25.804Z,5.72
2019-03-30T07:02:20.784Z,5.85
2019-03-30T07:08:15.787Z,5.41
2019-03-30T07:14:10.823Z,5.37
2019-03-30T07:20:05.772Z,6.03
2019-03-30T07:26:00.793Z,6.53
2019-03-30T07:31:55.784Z,6.43
2019-03-30T07:37:50.790Z,5.84
2019-03-30T07:43:45.838Z,7.24
2019-03-30T07:49:40.796Z,7.23
2019-03-30T07:55:35.786Z,8.32
2019-03-30T08:01:30.788Z,7.72
2019-03-30T08:07:25.802Z,8.33
2019-03-30T08:13:20.856Z,8.16
2019-03-30T08:19:15.850Z,8.04
2019-03-30T08:25:10.819Z,8.87
2019-03-30T08:31:05.845Z,6.62
2019-03-30T08:37:00.830Z,6.22
2019-03-30T08:42:55.871Z,6.13
2019-03-30T08:48:50.846Z,6.77
2019-03-30T08:54:45.834Z,5.12
2019-03-30T09:00:40.926Z,4.84
2019-03-30T09:06:35.879Z,5.58
2019-03-30T09:12:30.890Z,4.72
2019-03-30T09:18:25.906Z,4.3
2019-03-30T09:24:20.882Z,3.33
2019-03-30T09:30:15.840Z,6.11
2019-03-30T09:36:10.940Z,6.69
2019-03-30T09:42:05.865Z,4.21
2019-03-30T09:48:00.873Z,3.84
2019-03-30T09:53:55.849Z,3.67
2019-03-30T09:59:50.926Z,3.17
2019-03-30T10:05:45.939Z,3.46
2019-03-30T10:11:40.868Z,3.97
2019-03-30T10:17:35.937Z,3.89
2019-03-30T10:23:30.940Z,4.16
2019-03-30T10:29:25.894Z,4.2
2019-03-30T10:35:21.213Z,3.66
2019-03-30T10:41:15.929Z,4.16
2019-03-30T10:47:10.908Z,3.55
2019-03-30T10:53:05.955Z,3.95
2019-03-30T10:59:00.886Z,4.49
2019-03-30T11:04:55.914Z,3.73
2019-03-30T11:10:50.926Z,3.75
2019-03-30T11:16:45.925Z,3.37
2019-03-30T11:22:40.914Z,3.13
2019-03-30T11:28:35.948Z,3.3
2019-03-30T11:34:30.926Z,2.65
2019-03-30T11:40:25.938Z,3.07
2019-03-30T11:46:21.253Z,2.89
2019-03-30T11:52:15.959Z,2.88
2019-03-30T11:58:10.938Z,3.17
2019-03-30T12:04:05.948Z,3.4
2019-03-30T12:10:00.950Z,3.44
2019-03-30T12:15:55.965Z,3.09
2019-03-30T12:21:50.987Z,3.84
2019-03-30T12:27:45.968Z,3.52
2019-03-30T12:33:40.992Z,3.65
2019-03-30T12:39:35.969Z,3.45
2019-03-30T12:45:30.987Z,3.69
2019-03-30T12:51:26.289Z,3.83
2019-03-30T12:57:21.277Z,3.63
2019-03-30T13:03:15.998Z,3.72
2019-03-30T13:09:10.994Z,3.07
2019-03-30T13:15:06.004Z,3.74
2019-03-30T13:21:01.001Z,3.29
2019-03-30T13:26:56.001Z,2.85
2019-03-30T13:32:53.343Z,3.1
2019-03-30T13:38:45.980Z,2.53
2019-03-30T13:44:40.993Z,2.26
2019-03-30T13:50:36.006Z,2.74
2019-03-30T13:56:31.022Z,2.67
2019-03-30T14:02:26.321Z,2.79
2019-03-30T14:08:21.344Z,2.54
2019-03-30T14:14:16.045Z,2.53
2019-03-30T14:20:11.013Z,2.47
2019-03-30T14:26:06.080Z,3.11
2019-03-30T14:32:01.071Z,2.38
2019-03-30T14:37:56.038Z,3.07
2019-03-30T14:43:51.039Z,3.03
2019-03-30T14:49:46.073Z,2.63
2019-03-30T14:55:41.081Z,2.58
2019-03-30T15:01:36.168Z,2.52
2019-03-30T15:07:31.083Z,2.64
2019-03-30T15:13:26.146Z,2.42
2019-03-30T15:19:21.279Z,2.32
2019-03-30T15:25:16.100Z,2.89
2019-03-30T15:31:11.088Z,2.76
2019-03-30T15:37:06.110Z,2.63
2019-03-30T15:43:01.078Z,2.85
2019-03-30T15:48:56.088Z,3.67
2019-03-30T15:54:51.080Z,3.05
2019-03-30T16:00:46.107Z,2.93
2019-03-30T16:06:41.113Z,3.04
2019-03-30T16:12:36.199Z,3
2019-03-30T16:18:31.139Z,3.07
2019-03-30T16:24:26.120Z,3.48
2019-03-30T16:30:21.426Z,3.26
2019-03-30T16:36:16.102Z,3.16
2019-03-30T16:42:11.146Z,3.08
2019-03-30T16:48:06.125Z,3.06
2019-03-30T16:54:01.130Z,3.53
2019-03-30T16:59:56.148Z,6.72
2019-03-30T17:05:51.186Z,5.65
2019-03-30T17:11:46.168Z,3.41
2019-03-30T17:17:41.182Z,3.08
2019-03-30T17:23:36.180Z,3.42
2019-03-30T17:29:31.166Z,3.69
2019-03-30T17:35:26.489Z,4.12
2019-03-30T17:41:21.365Z,4.05
2019-03-30T17:47:16.172Z,4.35
2019-03-30T17:53:11.184Z,3.83
2019-03-30T17:59:06.191Z,4.23
2019-03-30T18:05:01.176Z,4.35
2019-03-30T18:10:56.171Z,4.85
2019-03-30T18:16:51.190Z,5.97
2019-03-30T18:22:46.308Z,4.71
2019-03-30T18:28:41.223Z,5.49
2019-03-30T18:34:36.228Z,5.1
2019-03-30T18:40:31.203Z,4.64
2019-03-30T18:46:26.571Z,4.82
2019-03-30T18:52:21.518Z,5.26
2019-03-30T18:58:16.203Z,5.31
2019-03-30T19:04:11.236Z,5.23
2019-03-30T19:10:06.311Z,5.2
2019-03-30T19:16:01.227Z,6.48
2019-03-30T19:21:56.233Z,6.3
2019-03-30T19:27:51.268Z,6.99
2019-03-30T19:33:46.225Z,6.92
2019-03-30T19:39:41.258Z,6.84
2019-03-30T19:45:36.276Z,5.71
2019-03-30T19:51:31.257Z,6.35
2019-03-30T19:57:27.777Z,7.04
2019-03-30T20:03:21.643Z,7.36
2019-03-30T20:09:16.284Z,7.06
2019-03-30T20:15:11.290Z,7.58
2019-03-30T20:21:06.256Z,6.75
2019-03-30T20:27:01.326Z,7.39
2019-03-30T20:32:56.286Z,7.63
2019-03-30T20:38:51.357Z,7.23
2019-03-30T20:44:46.295Z,7.45
2019-03-30T20:50:41.495Z,8.16
2019-03-30T20:56:36.314Z,7.71
2019-03-30T21:02:31.499Z,7.61
2019-03-30T21:08:26.341Z,7.27
2019-03-30T21:14:21.302Z,7.22
2019-03-30T21:20:16.328Z,8.46
2019-03-30T21:26:11.318Z,7.43
2019-03-30T21:32:06.322Z,6.76
2019-03-30T21:38:01.371Z,6.49
2019-03-30T21:43:56.329Z,6.43
2019-03-30T21:49:51.330Z,6.43
2019-03-30T21:55:46.344Z,6.37
2019-03-30T22:01:41.370Z,6.48
2019-03-30T22:07:36.395Z,6.2
2019-03-30T22:13:31.344Z,6.54
2019-03-30T22:19:26.631Z,6.29
2019-03-30T22:25:21.641Z,6.28
2019-03-30T22:31:16.393Z,6.36
2019-03-30T22:37:11.357Z,5.78
2019-03-30T22:43:06.345Z,6.01
2019-03-30T22:49:01.386Z,7.47
2019-03-30T22:54:56.366Z,6.61
2019-03-30T23:00:51.429Z,9.4
2019-03-30T23:06:46.374Z,11.99
2019-03-30T23:12:41.366Z,10.1
2019-03-30T23:18:36.450Z,11.78
2019-03-30T23:24:31.390Z,11.01
2019-03-30T23:30:26.665Z,11
2019-03-30T23:36:21.368Z,9.99
2019-03-30T23:42:16.447Z,10.64
2019-03-30T23:48:11.565Z,8.41
2019-03-30T23:54:06.391Z,10.03
